sensor_id;sensor_type;location;lat;lon;timestamp;pressure;altitude;pressure_sealevel;temperature;humidity
47761;BME280;33524;55.434;38.520;2024-01-30T00:00:21;101420.94;;;-2.58;98.27
47761;BME280;33524;55.434;38.520;2024-01-30T00:02:49;101413.25;;;-2.71;98.89
47761;BME280;33524;55.434;38.520;2024-01-30T00:05:18;101399.53;;;-2.82;99.54
47761;BME280;33524;55.434;38.520;2024-01-30T00:07:46;101377.22;;;-2.80;99.46
47761;BME280;33524;55.434;38.520;2024-01-30T00:10:17;101375.47;;;-2.72;99.45
47761;BME280;33524;55.434;38.520;2024-01-30T00:12:45;101372.09;;;-2.83;99.75
47761;BME280;33524;55.434;38.520;2024-01-30T00:15:13;101364.34;;;-2.88;100.00
47761;BME280;33524;55.434;38.520;2024-01-30T00:17:43;101360.06;;;-2.96;100.00
47761;BME280;33524;55.434;38.520;2024-01-30T00:20:11;101367.78;;;-2.86;100.00
47761;BME280;33524;55.434;38.520;2024-01-30T00:22:39;101367.78;;;-2.90;100.00
47761;BME280;33524;55.434;38.520;2024-01-30T00:25:07;101348.91;;;-3.00;100.00
47761;BME280;33524;55.434;38.520;2024-01-30T00:27:36;101342.91;;;-2.88;100.00
47761;BME280;33524;55.434;38.520;2024-01-30T00:30:06;101343.75;;;-2.85;100.00
47761;BME280;33524;55.434;38.520;2024-01-30T00:32:38;101356.63;;;-2.86;100.00
47761;BME280;33524;55.434;38.520;2024-01-30T00:35:06;101349.78;;;-2.87;100.00
47761;BME280;33524;55.434;38.520;2024-01-30T00:37:35;101351.47;;;-2.80;100.00
47761;BME280;33524;55.434;38.520;2024-01-30T00:40:03;101349.78;;;-2.87;100.00
47761;BME280;33524;55.434;38.520;2024-01-30T00:42:31;101348.91;;;-2.80;100.00
47761;BME280;33524;55.434;38.520;2024-01-30T00:45:00;101354.06;;;-2.86;100.00
47761;BME280;33524;55.434;38.520;2024-01-30T00:47:30;101345.47;;;-2.80;100.00
47761;BME280;33524;55.434;38.520;2024-01-30T00:50:01;101346.31;;;-2.78;100.00
47761;BME280;33524;55.434;38.520;2024-01-30T00:52:29;101343.75;;;-2.81;100.00
47761;BME280;33524;55.434;38.520;2024-01-30T00:54:57;101342.91;;;-2.79;100.00
47761;BME280;33524;55.434;38.520;2024-01-30T00:57:25;101345.47;;;-2.82;100.00
47761;BME280;33524;55.434;38.520;2024-01-30T00:59:54;101344.63;;;-2.81;100.00
47761;BME280;33524;55.434;38.520;2024-01-30T01:02:22;101341.16;;;-2.71;100.00
47761;BME280;33524;55.434;38.520;2024-01-30T01:04:51;101332.56;;;-2.76;100.00
47761;BME280;33524;55.434;38.520;2024-01-30T01:07:19;101325.72;;;-2.74;100.00
47761;BME280;33524;55.434;38.520;2024-01-30T01:09:47;101331.69;;;-2.58;99.96
47761;BME280;33524;55.434;38.520;2024-01-30T01:12:16;101327.41;;;-2.71;100.00
47761;BME280;33524;55.434;38.520;2024-01-30T01:14:44;101324.00;;;-2.75;100.00
47761;BME280;33524;55.434;38.520;2024-01-30T01:17:12;101331.72;;;-2.75;100.00
47761;BME280;33524;55.434;38.520;2024-01-30T01:19:43;101322.25;;;-2.70;100.00
47761;BME280;33524;55.434;38.520;2024-01-30T01:22:11;101330.88;;;-2.71;100.00
47761;BME280;33524;55.434;38.520;2024-01-30T01:24:39;101327.41;;;-2.65;100.00
47761;BME280;33524;55.434;38.520;2024-01-30T01:27:08;101325.66;;;-2.61;100.00
47761;BME280;33524;55.434;38.520;2024-01-30T01:29:37;101324.84;;;-2.67;100.00
47761;BME280;33524;55.434;38.520;2024-01-30T01:32:05;101318.81;;;-2.62;100.00
47761;BME280;33524;55.434;38.520;2024-01-30T01:34:34;101322.22;;;-2.57;100.00
47761;BME280;33524;55.434;38.520;2024-01-30T01:37:02;101319.66;;;-2.60;100.00
47761;BME280;33524;55.434;38.520;2024-01-30T01:39:31;101321.31;;;-2.50;100.00
47761;BME280;33524;55.434;38.520;2024-01-30T01:42:00;101320.53;;;-2.68;100.00
47761;BME280;33524;55.434;38.520;2024-01-30T01:44:28;101306.78;;;-2.60;100.00
47761;BME280;33524;55.434;38.520;2024-01-30T01:46:56;101313.66;;;-2.66;100.00
47761;BME280;33524;55.434;38.520;2024-01-30T01:49:27;101310.19;;;-2.58;100.00
47761;BME280;33524;55.434;38.520;2024-01-30T01:51:56;101301.63;;;-2.59;100.00
47761;BME280;33524;55.434;38.520;2024-01-30T01:54:26;101305.09;;;-2.65;100.00
47761;BME280;33524;55.434;38.520;2024-01-30T01:56:56;101303.38;;;-2.66;100.00
47761;BME280;33524;55.434;38.520;2024-01-30T01:59:24;101305.13;;;-2.71;100.00
47761;BME280;33524;55.434;38.520;2024-01-30T02:01:55;101304.25;;;-2.67;100.00
47761;BME280;33524;55.434;38.520;2024-01-30T02:04:24;101303.34;;;-2.58;100.00
47761;BME280;33524;55.434;38.520;2024-01-30T02:06:52;101305.91;;;-2.61;100.00
47761;BME280;33524;55.434;38.520;2024-01-30T02:09:20;101301.63;;;-2.60;100.00
47761;BME280;33524;55.434;38.520;2024-01-30T02:11:48;101303.31;;;-2.53;100.00
47761;BME280;33524;55.434;38.520;2024-01-30T02:14:17;101289.56;;;-2.49;100.00
47761;BME280;33524;55.434;38.520;2024-01-30T02:16:45;101276.69;;;-2.51;100.00
47761;BME280;33524;55.434;38.520;2024-01-30T02:19:13;101270.69;;;-2.53;100.00
47761;BME280;33524;55.434;38.520;2024-01-30T02:21:44;101272.34;;;-2.41;100.00
47761;BME280;33524;55.434;38.520;2024-01-30T02:24:16;101280.94;;;-2.39;100.00
47761;BME280;33524;55.434;38.520;2024-01-30T02:26:45;101288.63;;;-2.36;100.00
47761;BME280;33524;55.434;38.520;2024-01-30T02:29:14;101289.50;;;-2.35;100.00
47761;BME280;33524;55.434;38.520;2024-01-30T02:31:42;101288.56;;;-2.20;99.73
47761;BME280;33524;55.434;38.520;2024-01-30T02:34:10;101286.91;;;-2.29;100.00
47761;BME280;33524;55.434;38.520;2024-01-30T02:36:42;101283.44;;;-2.27;100.00
47761;BME280;33524;55.434;38.520;2024-01-30T02:39:11;101279.16;;;-2.23;100.00
47761;BME280;33524;55.434;38.520;2024-01-30T02:41:39;101276.53;;;-2.20;100.00
47761;BME280;33524;55.434;38.520;2024-01-30T02:44:08;101280.00;;;-2.21;100.00
47761;BME280;33524;55.434;38.520;2024-01-30T02:46:36;101292.81;;;-2.13;99.91
47761;BME280;33524;55.434;38.520;2024-01-30T02:49:04;101298.84;;;-2.13;99.71
47761;BME280;33524;55.434;38.520;2024-01-30T02:51:32;101303.09;;;-2.07;99.54
47761;BME280;33524;55.434;38.520;2024-01-30T02:54:01;101294.53;;;-2.15;99.64
47761;BME280;33524;55.434;38.520;2024-01-30T02:56:30;101308.22;;;-2.01;99.67
47761;BME280;33524;55.434;38.520;2024-01-30T02:58:58;101296.16;;;-1.99;99.38
47761;BME280;33524;55.434;38.520;2024-01-30T03:01:26;101292.78;;;-2.04;99.48
47761;BME280;33524;55.434;38.520;2024-01-30T03:03:55;101287.59;;;-1.98;99.12
47761;BME280;33524;55.434;38.520;2024-01-30T03:06:23;101285.81;;;-1.90;99.08
47761;BME280;33524;55.434;38.520;2024-01-30T03:08:51;101279.78;;;-1.86;98.99
47761;BME280;33524;55.434;38.520;2024-01-30T03:11:20;101253.16;;;-1.91;98.05
47761;BME280;33524;55.434;38.520;2024-01-30T03:13:48;101272.03;;;-1.86;98.91
47761;BME280;33524;55.434;38.520;2024-01-30T03:16:16;101273.78;;;-1.91;99.10
47761;BME280;33524;55.434;38.520;2024-01-30T03:18:44;101282.31;;;-1.83;99.05
47761;BME280;33524;55.434;38.520;2024-01-30T03:21:12;101276.25;;;-1.78;98.99
47761;BME280;33524;55.434;38.520;2024-01-30T03:23:40;101281.47;;;-1.83;99.32
47761;BME280;33524;55.434;38.520;2024-01-30T03:26:09;101285.69;;;-1.74;98.66
47761;BME280;33524;55.434;38.520;2024-01-30T03:28:38;101289.97;;;-1.72;98.29
47761;BME280;33524;55.434;38.520;2024-01-30T03:31:06;101290.84;;;-1.71;98.41
47761;BME280;33524;55.434;38.520;2024-01-30T03:33:38;101304.63;;;-1.75;98.96
47761;BME280;33524;55.434;38.520;2024-01-30T03:36:07;101298.53;;;-1.67;98.61
47761;BME280;33524;55.434;38.520;2024-01-30T03:38:40;101303.66;;;-1.64;98.55
47761;BME280;33524;55.434;38.520;2024-01-30T03:41:08;101309.69;;;-1.63;98.66
47761;BME280;33524;55.434;38.520;2024-01-30T03:43:37;101309.69;;;-1.66;98.68
47761;BME280;33524;55.434;38.520;2024-01-30T03:46:05;101304.53;;;-1.63;98.20
47761;BME280;33524;55.434;38.520;2024-01-30T03:48:34;101297.59;;;-1.58;98.14
47761;BME280;33524;55.434;38.520;2024-01-30T03:51:02;101296.81;;;-1.65;98.55
47761;BME280;33524;55.434;38.520;2024-01-30T03:53:30;101296.72;;;-1.54;98.54
47761;BME280;33524;55.434;38.520;2024-01-30T03:55:58;101300.97;;;-1.50;98.02
47761;BME280;33524;55.434;38.520;2024-01-30T03:58:27;101300.97;;;-1.50;98.21
47761;BME280;33524;55.434;38.520;2024-01-30T04:00:55;101302.75;;;-1.56;98.50
47761;BME280;33524;55.434;38.520;2024-01-30T04:03:23;101303.56;;;-1.48;98.63
47761;BME280;33524;55.434;38.520;2024-01-30T04:05:52;101313.88;;;-1.50;98.67
47761;BME280;33524;55.434;38.520;2024-01-30T04:08:21;101300.97;;;-1.50;98.43
47761;BME280;33524;55.434;38.520;2024-01-30T04:10:49;101307.81;;;-1.46;98.52
47761;BME280;33524;55.434;38.520;2024-01-30T04:13:17;101304.34;;;-1.43;98.21
47761;BME280;33524;55.434;38.520;2024-01-30T04:15:45;101300.91;;;-1.42;98.29
47761;BME280;33524;55.434;38.520;2024-01-30T04:18:14;101294.91;;;-1.43;98.36
47761;BME280;33524;55.434;38.520;2024-01-30T04:20:42;101290.66;;;-1.47;98.57
47761;BME280;33524;55.434;38.520;2024-01-30T04:23:10;101288.03;;;-1.45;98.78
47761;BME280;33524;55.434;38.520;2024-01-30T04:25:39;101294.03;;;-1.42;98.63
47761;BME280;33524;55.434;38.520;2024-01-30T04:28:07;101302.66;;;-1.43;98.49
47761;BME280;33524;55.434;38.520;2024-01-30T04:30:35;101305.22;;;-1.43;98.71
47761;BME280;33524;55.434;38.520;2024-01-30T04:33:03;101300.91;;;-1.40;98.54
47761;BME280;33524;55.434;38.520;2024-01-30T04:35:32;101310.34;;;-1.39;98.68
47761;BME280;33524;55.434;38.520;2024-01-30T04:38:03;101305.22;;;-1.43;98.76
47761;BME280;33524;55.434;38.520;2024-01-30T04:40:32;101306.03;;;-1.39;98.90
47761;BME280;33524;55.434;38.520;2024-01-30T04:43:00;101312.94;;;-1.36;98.97
47761;BME280;33524;55.434;38.520;2024-01-30T04:45:29;101311.25;;;-1.42;99.19
47761;BME280;33524;55.434;38.520;2024-01-30T04:47:57;101310.34;;;-1.36;99.10
47761;BME280;33524;55.434;38.520;2024-01-30T04:50:25;101305.09;;;-1.30;98.94
47761;BME280;33524;55.434;38.520;2024-01-30T04:52:54;101299.09;;;-1.31;98.74
47761;BME280;33524;55.434;38.520;2024-01-30T04:55:22;101307.66;;;-1.26;98.66
47761;BME280;33524;55.434;38.520;2024-01-30T04:57:51;101293.97;;;-1.34;99.01
47761;BME280;33524;55.434;38.520;2024-01-30T05:00:19;101304.19;;;-1.26;98.87
47761;BME280;33524;55.434;38.520;2024-01-30T05:02:47;101292.97;;;-1.22;98.59
47761;BME280;33524;55.434;38.520;2024-01-30T05:05:15;101305.88;;;-1.22;98.98
47761;BME280;33524;55.434;38.520;2024-01-30T05:07:44;101307.63;;;-1.21;98.72
47761;BME280;33524;55.434;38.520;2024-01-30T05:10:12;101304.97;;;-1.16;98.59
47761;BME280;33524;55.434;38.520;2024-01-30T05:12:40;101300.66;;;-1.16;98.50
47761;BME280;33524;55.434;38.520;2024-01-30T05:15:09;101317.94;;;-1.21;99.04
47761;BME280;33524;55.434;38.520;2024-01-30T05:17:37;101318.78;;;-1.19;98.99
47761;BME280;33524;55.434;38.520;2024-01-30T05:20:06;101326.53;;;-1.22;98.97
47761;BME280;33524;55.434;38.520;2024-01-30T05:22:35;101333.38;;;-1.15;98.78
47761;BME280;33524;55.434;38.520;2024-01-30T05:25:05;101326.47;;;-1.14;98.63
47761;BME280;33524;55.434;38.520;2024-01-30T05:27:36;101330.72;;;-1.07;98.43
47761;BME280;33524;55.434;38.520;2024-01-30T05:30:06;101324.75;;;-1.14;98.84
47761;BME280;33524;55.434;38.520;2024-01-30T05:32:35;101334.22;;;-1.13;98.98
47761;BME280;33524;55.434;38.520;2024-01-30T05:35:03;101329.84;;;-1.08;98.93
47761;BME280;33524;55.434;38.520;2024-01-30T05:37:32;101328.09;;;-1.03;98.59
47761;BME280;33524;55.434;38.520;2024-01-30T05:40:00;101319.41;;;-0.95;97.86
47761;BME280;33524;55.434;38.520;2024-01-30T05:42:28;101322.03;;;-0.97;98.25
47761;BME280;33524;55.434;38.520;2024-01-30T05:44:56;101316.03;;;-1.00;98.48
47761;BME280;33524;55.434;38.520;2024-01-30T05:47:25;101327.12;;;-0.92;97.98
47761;BME280;33524;55.434;38.520;2024-01-30T05:49:53;101321.09;;;-0.91;97.90
47761;BME280;33524;55.434;38.520;2024-01-30T05:52:21;101321.00;;;-0.80;97.77
47761;BME280;33524;55.434;38.520;2024-01-30T05:54:49;101318.37;;;-0.79;97.54
47761;BME280;33524;55.434;38.520;2024-01-30T05:57:17;101323.47;;;-0.71;97.42
47761;BME280;33524;55.434;38.520;2024-01-30T05:59:46;101324.50;;;-0.85;97.82
47761;BME280;33524;55.434;38.520;2024-01-30T06:02:15;101326.13;;;-0.77;97.82
47761;BME280;33524;55.434;38.520;2024-01-30T06:04:43;101323.47;;;-0.70;97.54
47761;BME280;33524;55.434;38.520;2024-01-30T06:07:12;101329.47;;;-0.66;97.46
47761;BME280;33524;55.434;38.520;2024-01-30T06:09:40;101326.88;;;-0.69;97.66
47761;BME280;33524;55.434;38.520;2024-01-30T06:12:09;101331.16;;;-0.67;97.48
47761;BME280;33524;55.434;38.520;2024-01-30T06:14:42;101332.06;;;-0.71;97.59
47761;BME280;33524;55.434;38.520;2024-01-30T06:17:14;101330.31;;;-0.69;97.63
47761;BME280;33524;55.434;38.520;2024-01-30T06:19:42;101334.50;;;-0.58;97.13
47761;BME280;33524;55.434;38.520;2024-01-30T06:22:10;101337.03;;;-0.52;96.93
47761;BME280;33524;55.434;38.520;2024-01-30T06:24:39;101343.81;;;-0.44;96.50
47761;BME280;33524;55.434;38.520;2024-01-30T06:27:07;101349.03;;;-0.47;97.06
47761;BME280;33524;55.434;38.520;2024-01-30T06:29:35;101342.19;;;-0.49;96.58
47761;BME280;33524;55.434;38.520;2024-01-30T06:32:04;101346.47;;;-0.48;97.26
47761;BME280;33524;55.434;38.520;2024-01-30T06:34:35;101354.06;;;-0.36;96.98
47761;BME280;33524;55.434;38.520;2024-01-30T06:37:04;101344.63;;;-0.40;96.97
47761;BME280;33524;55.434;38.520;2024-01-30T06:39:32;101333.38;;;-0.36;96.60
47761;BME280;33524;55.434;38.520;2024-01-30T06:42:00;101351.47;;;-0.36;96.69
47761;BME280;33524;55.434;38.520;2024-01-30T06:44:28;101346.16;;;-0.21;96.66
47761;BME280;33524;55.434;38.520;2024-01-30T06:47:00;101355.59;;;-0.21;96.26
47761;BME280;33524;55.434;38.520;2024-01-30T06:49:28;101335.97;;;-0.33;96.48
47761;BME280;33524;55.434;38.520;2024-01-30T06:51:56;101347.06;;;-0.25;96.52
47761;BME280;33524;55.434;38.520;2024-01-30T06:54:24;101355.59;;;-0.18;96.23
47761;BME280;33524;55.434;38.520;2024-01-30T06:56:52;101363.34;;;-0.19;96.21
47761;BME280;33524;55.434;38.520;2024-01-30T06:59:20;101363.34;;;-0.16;96.10
47761;BME280;33524;55.434;38.520;2024-01-30T07:01:48;101358.94;;;-0.13;96.16
47761;BME280;33524;55.434;38.520;2024-01-30T07:04:18;101363.13;;;-0.01;95.68
47761;BME280;33524;55.434;38.520;2024-01-30T07:06:46;101351.00;;;0.03;95.67
47761;BME280;33524;55.434;38.520;2024-01-30T07:09:14;101363.88;;;0.06;95.52
47761;BME280;33524;55.434;38.520;2024-01-30T07:11:42;101364.91;;;-0.06;95.67
47761;BME280;33524;55.434;38.520;2024-01-30T07:14:10;101365.72;;;-0.03;95.23
47761;BME280;33524;55.434;38.520;2024-01-30T07:16:38;101375.13;;;0.03;95.45
47761;BME280;33524;55.434;38.520;2024-01-30T07:19:07;101358.63;;;0.12;95.36
47761;BME280;33524;55.434;38.520;2024-01-30T07:21:37;101369.53;;;0.35;94.46
47761;BME280;33524;55.434;38.520;2024-01-30T07:24:06;101371.84;;;0.54;93.58
47761;BME280;33524;55.434;38.520;2024-01-30T07:26:34;101367.62;;;0.45;92.95
47761;BME280;33524;55.434;38.520;2024-01-30T07:29:03;101379.34;;;0.69;92.81
47761;BME280;33524;55.434;38.520;2024-01-30T07:31:31;101376.56;;;0.83;92.35
47761;BME280;33524;55.434;38.520;2024-01-30T07:34:01;101379.59;;;0.54;92.25
47761;BME280;33524;55.434;38.520;2024-01-30T07:36:30;101380.28;;;0.65;92.65
47761;BME280;33524;55.434;38.520;2024-01-30T07:38:58;101379.63;;;0.52;92.92
47761;BME280;33524;55.434;38.520;2024-01-30T07:41:26;101385.53;;;0.60;92.76
47761;BME280;33524;55.434;38.520;2024-01-30T07:43:54;101382.28;;;0.48;92.96
47761;BME280;33524;55.434;38.520;2024-01-30T07:46:22;101383.25;;;0.39;93.70
47761;BME280;33524;55.434;38.520;2024-01-30T07:48:51;101389.31;;;0.39;94.01
47761;BME280;33524;55.434;38.520;2024-01-30T07:51:23;101380.75;;;0.34;94.10
47761;BME280;33524;55.434;38.520;2024-01-30T07:53:52;101385.75;;;0.47;93.72
47761;BME280;33524;55.434;38.520;2024-01-30T07:56:20;101377.13;;;0.45;93.93
47761;BME280;33524;55.434;38.520;2024-01-30T07:58:48;101378.59;;;0.63;93.16
47761;BME280;33524;55.434;38.520;2024-01-30T08:01:16;101382.69;;;0.76;92.87
47761;BME280;33524;55.434;38.520;2024-01-30T08:03:45;101387.88;;;0.74;92.46
47761;BME280;33524;55.434;38.520;2024-01-30T08:06:13;101380.19;;;0.70;92.69
47761;BME280;33524;55.434;38.520;2024-01-30T08:08:41;101385.19;;;0.80;92.48
47761;BME280;33524;55.434;38.520;2024-01-30T08:11:10;101388.78;;;0.75;92.30
47761;BME280;33524;55.434;38.520;2024-01-30T08:13:38;101382.03;;;0.65;93.06
47761;BME280;33524;55.434;38.520;2024-01-30T08:16:06;101381.03;;;0.72;92.58
47761;BME280;33524;55.434;38.520;2024-01-30T08:18:36;101380.28;;;0.65;92.81
47761;BME280;33524;55.434;38.520;2024-01-30T08:21:04;101371.50;;;0.74;92.70
47761;BME280;33524;55.434;38.520;2024-01-30T08:23:32;101364.53;;;0.79;92.57
47761;BME280;33524;55.434;38.520;2024-01-30T08:26:04;101381.03;;;0.72;92.75
47761;BME280;33524;55.434;38.520;2024-01-30T08:28:35;101369.88;;;0.68;92.89
47761;BME280;33524;55.434;38.520;2024-01-30T08:31:03;101364.50;;;0.80;92.81
47761;BME280;33524;55.434;38.520;2024-01-30T08:33:31;101355.63;;;0.95;92.46
47761;BME280;33524;55.434;38.520;2024-01-30T08:35:59;101366.09;;;0.89;92.43
47761;BME280;33524;55.434;38.520;2024-01-30T08:38:28;101361.66;;;0.94;92.03
47761;BME280;33524;55.434;38.520;2024-01-30T08:40:59;101355.63;;;1.42;91.18
47761;BME280;33524;55.434;38.520;2024-01-30T08:43:27;101355.37;;;1.56;90.62
47761;BME280;33524;55.434;38.520;2024-01-30T08:45:55;101361.34;;;1.59;89.14
47761;BME280;33524;55.434;38.520;2024-01-30T08:48:25;101365.53;;;1.65;89.00
47761;BME280;33524;55.434;38.520;2024-01-30T08:50:53;101376.91;;;1.59;88.65
47761;BME280;33524;55.434;38.520;2024-01-30T08:53:22;101373.28;;;1.68;88.18
47761;BME280;33524;55.434;38.520;2024-01-30T08:55:50;101383.53;;;1.29;89.41
47761;BME280;33524;55.434;38.520;2024-01-30T08:58:18;101385.87;;;1.41;89.40
47761;BME280;33524;55.434;38.520;2024-01-30T09:00:46;101384.22;;;1.37;89.73
47761;BME280;33524;55.434;38.520;2024-01-30T09:03:14;101375.75;;;1.29;89.70
47761;BME280;33524;55.434;38.520;2024-01-30T09:05:46;101360.53;;;1.11;89.85
47761;BME280;33524;55.434;38.520;2024-01-30T09:08:14;101378.63;;;1.14;90.53
47761;BME280;33524;55.434;38.520;2024-01-30T09:10:44;101392.50;;;1.10;90.87
47761;BME280;33524;55.434;38.520;2024-01-30T09:13:12;101393.28;;;1.15;90.87
47761;BME280;33524;55.434;38.520;2024-01-30T09:15:41;101381.66;;;0.88;91.32
47761;BME280;33524;55.434;38.520;2024-01-30T09:18:09;101390.16;;;0.96;91.91
47761;BME280;33524;55.434;38.520;2024-01-30T09:20:38;101386.00;;;0.84;92.72
47761;BME280;33524;55.434;38.520;2024-01-30T09:23:06;101387.66;;;0.91;92.49
47761;BME280;33524;55.434;38.520;2024-01-30T09:25:34;101393.66;;;0.92;92.72
47761;BME280;33524;55.434;38.520;2024-01-30T09:28:02;101384.03;;;1.00;92.54
47761;BME280;33524;55.434;38.520;2024-01-30T09:30:31;101378.78;;;1.05;92.29
47761;BME280;33524;55.434;38.520;2024-01-30T09:32:58;101368.19;;;1.17;91.81
47761;BME280;33524;55.434;38.520;2024-01-30T09:35:27;101357.12;;;1.07;91.92
47761;BME280;33524;55.434;38.520;2024-01-30T09:37:55;101358.84;;;1.10;91.83
47761;BME280;33524;55.434;38.520;2024-01-30T09:40:27;101357.81;;;1.17;91.64
47761;BME280;33524;55.434;38.520;2024-01-30T09:42:56;101366.44;;;1.19;91.62
47761;BME280;33524;55.434;38.520;2024-01-30T09:45:27;101363.19;;;1.08;91.65
47761;BME280;33524;55.434;38.520;2024-01-30T09:47:55;101378.63;;;1.14;91.77
47761;BME280;33524;55.434;38.520;2024-01-30T09:50:24;101364.66;;;1.23;91.30
47761;BME280;33524;55.434;38.520;2024-01-30T09:52:54;101369.91;;;1.18;91.72
47761;BME280;33524;55.434;38.520;2024-01-30T09:55:23;101369.63;;;1.33;91.23
47761;BME280;33524;55.434;38.520;2024-01-30T09:57:51;101370.44;;;1.37;90.78
47761;BME280;33524;55.434;38.520;2024-01-30T10:00:20;101377.19;;;1.44;90.72
47761;BME280;33524;55.434;38.520;2024-01-30T10:02:53;101368.94;;;1.69;89.95
47761;BME280;33524;55.434;38.520;2024-01-30T10:05:28;101363.25;;;1.50;89.97
47761;BME280;33524;55.434;38.520;2024-01-30T10:08:00;101358.72;;;1.61;89.59
47761;BME280;33524;55.434;38.520;2024-01-30T10:10:28;101366.41;;;1.66;89.35
47761;BME280;33524;55.434;38.520;2024-01-30T10:12:57;101368.00;;;1.73;88.96
47761;BME280;33524;55.434;38.520;2024-01-30T10:15:28;101365.03;;;1.90;88.22
47761;BME280;33524;55.434;38.520;2024-01-30T10:17:57;101364.72;;;1.63;88.22
47761;BME280;33524;55.434;38.520;2024-01-30T10:20:25;101365.75;;;1.54;89.51
47761;BME280;33524;55.434;38.520;2024-01-30T10:22:57;101363.72;;;1.70;88.93
47761;BME280;33524;55.434;38.520;2024-01-30T10:25:25;101365.25;;;1.80;88.38
47761;BME280;33524;55.434;38.520;2024-01-30T10:27:59;101356.94;;;1.63;89.10
47761;BME280;33524;55.434;38.520;2024-01-30T10:30:30;101363.03;;;1.62;89.00
47761;BME280;33524;55.434;38.520;2024-01-30T10:32:59;101375.50;;;1.43;89.82
47761;BME280;33524;55.434;38.520;2024-01-30T10:35:30;101364.81;;;1.58;89.70
47761;BME280;33524;55.434;38.520;2024-01-30T10:38:02;101367.75;;;1.41;89.85
47761;BME280;33524;55.434;38.520;2024-01-30T10:40:32;101376.69;;;1.25;90.70
47761;BME280;33524;55.434;38.520;2024-01-30T10:43:02;101376.03;;;1.14;91.21
47761;BME280;33524;55.434;38.520;2024-01-30T10:45:32;101382.16;;;1.10;92.07
47761;BME280;33524;55.434;38.520;2024-01-30T10:48:01;101381.28;;;1.09;91.94
47761;BME280;33524;55.434;38.520;2024-01-30T10:50:33;101373.44;;;1.14;91.96
47761;BME280;33524;55.434;38.520;2024-01-30T10:53:08;101384.47;;;1.24;91.66
47761;BME280;33524;55.434;38.520;2024-01-30T10:55:38;101380.78;;;1.37;90.85
47761;BME280;33524;55.434;38.520;2024-01-30T10:58:08;101379.84;;;1.41;90.72
47761;BME280;33524;55.434;38.520;2024-01-30T11:00:39;101373.09;;;1.32;91.10
47761;BME280;33524;55.434;38.520;2024-01-30T11:03:07;101370.31;;;1.43;90.89
47761;BME280;33524;55.434;38.520;2024-01-30T11:05:35;101369.03;;;1.64;90.34
47761;BME280;33524;55.434;38.520;2024-01-30T11:08:14;101365.37;;;1.74;89.73
47761;BME280;33524;55.434;38.520;2024-01-30T11:10:46;101351.63;;;1.69;89.33
47761;BME280;33524;55.434;38.520;2024-01-30T11:13:15;101355.81;;;1.76;88.97
47761;BME280;33524;55.434;38.520;2024-01-30T11:15:44;101353.94;;;1.85;88.57
47761;BME280;33524;55.434;38.520;2024-01-30T11:18:49;101350.53;;;1.81;88.85
47761;BME280;33524;55.434;38.520;2024-01-30T11:21:17;101364.53;;;1.74;88.83
47761;BME280;33524;55.434;38.520;2024-01-30T11:23:46;101362.53;;;1.87;88.21
47761;BME280;33524;55.434;38.520;2024-01-30T11:26:16;101371.84;;;1.95;88.09
47761;BME280;33524;55.434;38.520;2024-01-30T11:28:52;101377.41;;;1.78;88.05
47761;BME280;33524;55.434;38.520;2024-01-30T11:31:21;101367.47;;;1.99;88.00
47761;BME280;33524;55.434;38.520;2024-01-30T11:33:52;101371.00;;;1.95;87.91
47761;BME280;33524;55.434;38.520;2024-01-30T11:36:26;101374.03;;;1.73;88.48
47761;BME280;33524;55.434;38.520;2024-01-30T11:38:54;101372.22;;;1.78;88.70
47761;BME280;33524;55.434;38.520;2024-01-30T11:41:26;101382.59;;;1.78;88.48
47761;BME280;33524;55.434;38.520;2024-01-30T11:43:55;101369.00;;;1.66;88.47
47761;BME280;33524;55.434;38.520;2024-01-30T11:46:25;101374.03;;;1.73;88.90
47761;BME280;33524;55.434;38.520;2024-01-30T11:48:53;101384.00;;;1.50;89.55
47761;BME280;33524;55.434;38.520;2024-01-30T11:51:22;101387.75;;;1.33;90.35
47761;BME280;33524;55.434;38.520;2024-01-30T11:53:50;101387.97;;;1.23;91.30
47761;BME280;33524;55.434;38.520;2024-01-30T11:56:19;101388.47;;;1.43;90.65
47761;BME280;33524;55.434;38.520;2024-01-30T11:58:47;101385.47;;;1.18;91.46
47761;BME280;33524;55.434;38.520;2024-01-30T12:01:17;101376.66;;;1.28;91.17
47761;BME280;33524;55.434;38.520;2024-01-30T12:03:50;101376.78;;;1.19;91.53
47761;BME280;33524;55.434;38.520;2024-01-30T12:06:19;101391.81;;;0.98;92.88
47761;BME280;33524;55.434;38.520;2024-01-30T12:09:02;101403.19;;;0.91;93.34
47761;BME280;33524;55.434;38.520;2024-01-30T12:11:49;101398.88;;;0.90;93.45
47761;BME280;33524;55.434;38.520;2024-01-30T12:14:22;101385.28;;;0.76;93.84
47761;BME280;33524;55.434;38.520;2024-01-30T12:16:52;101410.03;;;0.95;93.95
47761;BME280;33524;55.434;38.520;2024-01-30T12:19:25;101407.44;;;0.95;93.75
47761;BME280;33524;55.434;38.520;2024-01-30T12:21:57;101423.03;;;0.91;93.98
47761;BME280;33524;55.434;38.520;2024-01-30T12:24:28;101429.03;;;0.94;93.94
47761;BME280;33524;55.434;38.520;2024-01-30T12:27:00;101428.91;;;1.00;93.62
47761;BME280;33524;55.434;38.520;2024-01-30T12:29:32;101425.47;;;1.02;93.23
47761;BME280;33524;55.434;38.520;2024-01-30T12:32:05;101439.31;;;0.99;93.56
47761;BME280;33524;55.434;38.520;2024-01-30T12:34:34;101432.41;;;0.99;93.78
47761;BME280;33524;55.434;38.520;2024-01-30T12:37:16;101429.81;;;0.99;93.74
47761;BME280;33524;55.434;38.520;2024-01-30T12:39:52;101429.13;;;0.88;93.98
47761;BME280;33524;55.434;38.520;2024-01-30T12:42:23;101421.31;;;0.91;94.03
47761;BME280;33524;55.434;38.520;2024-01-30T12:44:52;101423.91;;;0.90;94.35
47761;BME280;33524;55.434;38.520;2024-01-30T12:47:23;101420.56;;;0.83;94.59
47761;BME280;33524;55.434;38.520;2024-01-30T12:49:51;101421.53;;;0.77;95.02
47761;BME280;33524;55.434;38.520;2024-01-30T12:52:22;101418.91;;;0.79;94.97